createdAt,value
2023-03-21T00:00:37.197Z,82.62
2023-03-21T00:03:41.248Z,82.71
2023-03-21T00:06:44.326Z,82.60
2023-03-21T00:09:47.544Z,81.92
2023-03-21T00:12:55.515Z,82.62
2023-03-21T00:16:17.735Z,81.92
2023-03-21T00:19:26.420Z,82.52
2023-03-21T00:22:29.624Z,82.63
2023-03-21T00:25:33.248Z,82.40
2023-03-21T00:28:45.918Z,82.50
2023-03-21T00:31:48.855Z,82.15
2023-03-21T00:35:11.933Z,82.55
2023-03-21T00:38:15.564Z,82.01
2023-03-21T00:41:31.688Z,81.17
2023-03-21T00:44:43.066Z,81.87
2023-03-21T00:47:46.387Z,81.80
2023-03-21T00:50:52.603Z,81.77
2023-03-21T00:53:58.588Z,81.33
2023-03-21T00:57:03.753Z,81.31
2023-03-21T01:00:10.849Z,81.35
2023-03-21T01:03:24.289Z,80.71
2023-03-21T01:06:29.182Z,80.63
2023-03-21T01:09:34.024Z,80.35
2023-03-21T01:12:37.184Z,80.67
2023-03-21T01:15:46.975Z,81.11
2023-03-21T01:18:51.544Z,81.36
2023-03-21T01:21:56.774Z,81.80
2023-03-21T01:25:12.187Z,81.65
2023-03-21T01:28:28.723Z,82.13
2023-03-21T01:31:32.230Z,82.64
2023-03-21T01:34:35.181Z,83.01
2023-03-21T01:37:38.401Z,82.71
2023-03-21T01:40:42.283Z,82.37
2023-03-21T01:43:46.245Z,81.98
2023-03-21T01:47:12.451Z,81.65
2023-03-21T01:50:18.356Z,81.33
2023-03-21T01:53:24.171Z,81.23
2023-03-21T01:56:34.135Z,81.82
2023-03-21T01:59:46.144Z,81.74
2023-03-21T02:03:11.571Z,80.94
2023-03-21T02:06:49.156Z,80.99
2023-03-21T02:09:53.979Z,81.04
2023-03-21T02:13:08.216Z,81.17
2023-03-21T02:16:15.433Z,81.43
2023-03-21T02:19:41.687Z,81.01
2023-03-21T02:23:15.668Z,81.70
2023-03-21T02:27:03.548Z,81.90
2023-03-21T02:30:26.472Z,81.74
2023-03-21T02:33:54.459Z,82.19
2023-03-21T02:37:03.633Z,82.78
2023-03-21T02:40:11.315Z,82.84
2023-03-21T02:43:40.520Z,82.95
2023-03-21T02:47:04.564Z,83.21
2023-03-21T02:50:16.516Z,83.77
2023-03-21T02:53:22.089Z,83.29
2023-03-21T02:56:27.378Z,84.66
2023-03-21T02:59:33.932Z,84.29
2023-03-21T03:02:38.364Z,83.84
2023-03-21T03:05:48.582Z,84.00
2023-03-21T03:09:43.358Z,84.13
2023-03-21T03:12:59.820Z,84.36
2023-03-21T03:16:22.038Z,84.51
2023-03-21T03:19:49.951Z,83.91
2023-03-21T03:22:53.725Z,85.32
2023-03-21T03:26:08.924Z,85.30
2023-03-21T03:29:18.631Z,84.76
2023-03-21T03:32:27.305Z,84.89
2023-03-21T03:35:30.838Z,85.44
2023-03-21T03:38:35.503Z,86.02
2023-03-21T03:42:07.915Z,85.77
2023-03-21T03:45:13.566Z,86.25
2023-03-21T03:48:26.910Z,86.92
2023-03-21T03:51:39.202Z,86.60
2023-03-21T03:54:48.613Z,86.85
2023-03-21T03:57:53.162Z,87.18
2023-03-21T04:00:56.912Z,86.64
2023-03-21T04:04:12.295Z,86.42
2023-03-21T04:07:16.735Z,87.29
2023-03-21T04:10:20.872Z,86.48
2023-03-21T04:13:24.796Z,86.74
2023-03-21T04:16:35.827Z,87.02
2023-03-21T04:19:39.309Z,87.33
2023-03-21T04:22:42.892Z,87.14
2023-03-21T04:25:55.838Z,87.18
2023-03-21T04:29:03.603Z,87.46
2023-03-21T04:32:16.494Z,87.87
2023-03-21T04:35:21.091Z,88.38
2023-03-21T04:38:26.613Z,89.22
2023-03-21T04:41:31.029Z,89.72
2023-03-21T04:44:35.349Z,90.62
2023-03-21T04:47:38.639Z,90.31
2023-03-21T04:50:42.584Z,89.92
2023-03-21T04:53:47.118Z,89.80
2023-03-21T04:56:49.868Z,89.69
2023-03-21T04:59:53.168Z,89.79
2023-03-21T05:02:58.766Z,89.87
2023-03-21T05:06:03.287Z,90.19
2023-03-21T05:09:07.216Z,90.46
2023-03-21T05:12:10.581Z,90.71
2023-03-21T05:15:13.637Z,90.82
2023-03-21T05:18:25.014Z,90.64
2023-03-21T05:21:42.906Z,90.85
2023-03-21T05:24:50.454Z,90.65
2023-03-21T05:27:56.131Z,90.54
2023-03-21T05:31:00.496Z,90.26
2023-03-21T05:34:05.400Z,90.05
2023-03-21T05:37:08.535Z,90.15
2023-03-21T05:40:13.085Z,89.92
2023-03-21T05:43:18.062Z,89.74
2023-03-21T05:46:21.966Z,89.71
2023-03-21T05:49:27.141Z,89.62
2023-03-21T05:52:30.582Z,89.41
2023-03-21T05:55:33.969Z,89.42
2023-03-21T05:58:36.905Z,88.81
2023-03-21T06:01:41.792Z,88.10
2023-03-21T06:04:46.378Z,87.86
2023-03-21T06:07:49.451Z,88.56
2023-03-21T06:10:52.809Z,87.73
2023-03-21T06:13:55.803Z,87.21
2023-03-21T06:16:59.355Z,86.60
2023-03-21T06:20:05.148Z,87.21
2023-03-21T06:23:08.437Z,86.03
2023-03-21T06:26:11.514Z,85.34
2023-03-21T06:29:16.006Z,85.33
2023-03-21T06:32:22.499Z,84.96
2023-03-21T06:35:27.797Z,84.81
2023-03-21T06:38:31.751Z,84.05
2023-03-21T06:41:34.994Z,84.63
2023-03-21T06:44:38.160Z,84.65
2023-03-21T06:47:41.859Z,83.90
2023-03-21T06:50:48.957Z,83.51
2023-03-21T06:53:52.802Z,83.19
2023-03-21T06:56:56.940Z,82.97
2023-03-21T07:00:01.626Z,82.81
2023-03-21T07:03:04.817Z,82.68
2023-03-21T07:06:12.003Z,82.81
2023-03-21T07:09:17.908Z,83.04
2023-03-21T07:12:23.158Z,83.02
2023-03-21T07:15:27.352Z,83.46
2023-03-21T07:18:31.210Z,82.14
2023-03-21T07:21:34.271Z,82.49
2023-03-21T07:24:38.092Z,81.12
2023-03-21T07:27:41.576Z,80.95
2023-03-21T07:30:46.039Z,80.36
2023-03-21T07:33:50.353Z,80.48
2023-03-21T07:36:53.612Z,80.11
2023-03-21T07:39:56.558Z,80.95
2023-03-21T07:46:09.042Z,80.14
2023-03-21T07:49:12.281Z,80.66
2023-03-21T07:52:16.896Z,80.23
2023-03-21T07:55:21.018Z,78.41
2023-03-21T07:58:25.822Z,81.78
2023-03-21T08:01:30.433Z,81.53
2023-03-21T08:04:35.133Z,80.35
2023-03-21T08:07:42.113Z,81.18
2023-03-21T08:10:46.078Z,80.01
2023-03-21T08:13:49.663Z,80.39
2023-03-21T08:16:53.022Z,79.81
2023-03-21T08:19:56.012Z,78.91
2023-03-21T08:22:59.208Z,78.69
2023-03-21T08:26:02.690Z,78.93
2023-03-21T08:29:06.228Z,79.15
2023-03-21T08:32:09.288Z,77.87
2023-03-21T08:35:16.024Z,77.22
2023-03-21T08:38:19.054Z,78.59
2023-03-21T08:41:24.519Z,76.06
2023-03-21T08:44:29.880Z,77.41
2023-03-21T08:47:33.219Z,77.49
2023-03-21T08:50:36.211Z,75.46
2023-03-21T08:53:41.611Z,75.21
2023-03-21T08:56:44.661Z,74.90
2023-03-21T08:59:47.856Z,74.54
2023-03-21T09:02:52.538Z,74.10
2023-03-21T09:05:58.476Z,73.17
2023-03-21T09:09:02.709Z,72.38
2023-03-21T09:12:06.274Z,73.96
2023-03-21T09:15:12.226Z,72.85
2023-03-21T09:18:18.294Z,72.27
2023-03-21T09:21:22.988Z,71.16
2023-03-21T09:24:26.645Z,70.66
2023-03-21T09:27:29.876Z,69.66
2023-03-21T09:30:34.602Z,69.68
2023-03-21T09:33:40.302Z,68.69
2023-03-21T09:36:44.419Z,68.03
2023-03-21T09:39:47.416Z,67.17
2023-03-21T09:43:28.533Z,65.93
2023-03-21T09:47:07.296Z,64.25
2023-03-21T09:50:17.455Z,63.18
2023-03-21T09:53:27.773Z,61.75
2023-03-21T09:56:31.347Z,62.07
2023-03-21T09:59:41.258Z,60.29
2023-03-21T10:02:49.768Z,59.41
2023-03-21T10:05:58.854Z,59.78
2023-03-21T10:09:08.060Z,56.31
2023-03-21T10:12:22.499Z,53.98
2023-03-21T10:15:26.932Z,54.52
2023-03-21T10:18:31.594Z,54.09
2023-03-21T10:24:57.910Z,53.90
2023-03-21T10:28:02.582Z,54.17
2023-03-21T10:31:10.921Z,54.82
2023-03-21T10:34:20.894Z,54.26
2023-03-21T10:37:25.226Z,53.40
2023-03-21T10:40:28.504Z,54.46
2023-03-21T10:43:34.981Z,53.64
2023-03-21T10:46:38.570Z,53.03
2023-03-21T10:50:05.725Z,53.92
2023-03-21T10:53:16.625Z,54.41
2023-03-21T10:56:24.595Z,53.34
2023-03-21T10:59:38.887Z,53.24
2023-03-21T11:02:43.196Z,54.42
2023-03-21T11:05:46.435Z,54.63
2023-03-21T11:08:54.281Z,54.06
2023-03-21T11:12:09.753Z,51.50
2023-03-21T11:15:30.302Z,51.31
2023-03-21T11:18:33.550Z,50.67
2023-03-21T11:21:38.096Z,49.94
2023-03-21T11:24:43.717Z,49.09
2023-03-21T11:27:54.508Z,50.35
2023-03-21T11:31:00.905Z,49.04
2023-03-21T11:34:07.121Z,48.53
2023-03-21T11:37:24.947Z,47.48
2023-03-21T11:40:36.461Z,47.16
2023-03-21T11:43:40.053Z,47.25
2023-03-21T11:46:43.422Z,46.36
2023-03-21T11:49:48.153Z,44.42
2023-03-21T11:52:55.677Z,46.21
2023-03-21T11:56:05.939Z,46.94
2023-03-21T11:59:19.018Z,46.94
2023-03-21T12:02:55.304Z,46.81
2023-03-21T12:06:02.481Z,44.60
2023-03-21T12:09:14.268Z,46.34
2023-03-21T12:12:56.786Z,47.09
2023-03-21T12:16:13.418Z,43.48
2023-03-21T12:19:31.691Z,39.75
2023-03-21T12:23:02.322Z,37.45
2023-03-21T12:26:31.760Z,39.83
2023-03-21T12:29:50.636Z,39.21
2023-03-21T12:33:06.059Z,41.10
2023-03-21T12:36:16.629Z,42.84
2023-03-21T12:39:29.911Z,44.44
2023-03-21T12:42:48.324Z,44.90
2023-03-21T12:45:56.106Z,45.27
2023-03-21T12:49:03.071Z,42.01
2023-03-21T12:52:09.462Z,39.69
2023-03-21T12:55:44.909Z,36.39
2023-03-21T12:58:49.508Z,33.80
2023-03-21T13:01:55.805Z,34.05
2023-03-21T13:05:17.395Z,30.78
2023-03-21T13:08:49.317Z,33.02
2023-03-21T13:11:55.962Z,31.55
2023-03-21T13:15:35.494Z,33.47
2023-03-21T13:18:41.784Z,37.87
2023-03-21T13:21:59.411Z,39.81
2023-03-21T13:25:17.690Z,37.91
2023-03-21T13:28:31.862Z,34.99
2023-03-21T13:31:50.896Z,32.54
2023-03-21T13:34:56.607Z,31.61
2023-03-21T13:38:12.986Z,30.51
2023-03-21T13:41:19.589Z,28.82
2023-03-21T13:44:49.652Z,28.54
2023-03-21T13:47:57.079Z,27.27
2023-03-21T13:51:05.263Z,30.34
2023-03-21T13:54:08.113Z,33.44
2023-03-21T13:57:23.210Z,37.11
2023-03-21T14:00:30.359Z,38.77
2023-03-21T14:03:35.268Z,43.88
2023-03-21T14:06:51.972Z,45.39
2023-03-21T14:10:05.904Z,46.44
2023-03-21T14:13:12.264Z,46.38
2023-03-21T14:16:19.711Z,48.22
2023-03-21T14:19:31.630Z,48.74
2023-03-21T14:22:34.944Z,48.97
2023-03-21T14:25:46.774Z,48.98
2023-03-21T14:28:53.120Z,47.36
2023-03-21T14:31:57.055Z,47.92
2023-03-21T14:35:01.517Z,45.34
2023-03-21T14:38:07.548Z,43.05
2023-03-21T14:41:27.241Z,39.75
2023-03-21T14:44:53.832Z,37.74
2023-03-21T14:48:05.840Z,35.82
2023-03-21T14:51:12.372Z,33.63
2023-03-21T14:54:17.910Z,31.92
2023-03-21T14:57:25.191Z,27.40
2023-03-21T15:00:31.762Z,28.86
2023-03-21T15:03:34.987Z,26.56
2023-03-21T15:06:53.664Z,29.45
2023-03-21T15:10:00.956Z,31.67
2023-03-21T15:13:22.944Z,36.36
2023-03-21T15:16:26.064Z,34.89
2023-03-21T15:19:33.961Z,34.15
2023-03-21T15:22:39.897Z,34.46
2023-03-21T15:25:43.662Z,33.40
2023-03-21T15:28:49.200Z,33.63
2023-03-21T15:31:52.861Z,33.38
2023-03-21T15:35:07.872Z,34.08
2023-03-21T15:38:33.163Z,35.86
2023-03-21T15:41:35.995Z,33.08
2023-03-21T15:44:49.622Z,33.88
2023-03-21T15:47:55.763Z,32.83
2023-03-21T15:51:04.763Z,33.75
2023-03-21T15:54:15.144Z,34.91
2023-03-21T15:57:24.543Z,32.85
2023-03-21T16:00:41.779Z,33.06
2023-03-21T16:03:48.090Z,33.13
2023-03-21T16:06:53.728Z,34.47
2023-03-21T16:10:01.627Z,34.07
2023-03-21T16:13:05.266Z,31.89
2023-03-21T16:16:16.381Z,35.37
2023-03-21T16:19:19.476Z,35.90
2023-03-21T16:22:22.671Z,35.75
2023-03-21T16:25:25.827Z,34.68
2023-03-21T16:28:29.440Z,34.33
2023-03-21T16:31:34.547Z,36.19
2023-03-21T16:34:38.111Z,37.54
2023-03-21T16:37:41.098Z,39.16
2023-03-21T16:40:45.184Z,38.87
2023-03-21T16:43:48.533Z,38.17
2023-03-21T16:46:51.995Z,38.79
2023-03-21T16:49:56.047Z,39.43
2023-03-21T16:53:00.208Z,39.78
2023-03-21T16:56:05.376Z,40.97
2023-03-21T16:59:12.624Z,42.88
2023-03-21T17:02:18.618Z,44.25
2023-03-21T17:05:23.295Z,44.83
2023-03-21T17:08:28.361Z,46.31
2023-03-21T17:11:36.217Z,46.57
2023-03-21T17:14:40.026Z,47.01
2023-03-21T17:17:44.283Z,47.92
2023-03-21T17:20:47.422Z,47.89
2023-03-21T17:23:51.097Z,47.75
2023-03-21T17:26:54.297Z,48.81
2023-03-21T17:29:58.400Z,50.06
2023-03-21T17:33:01.832Z,51.16
2023-03-21T17:36:06.400Z,51.60
2023-03-21T17:39:15.141Z,53.19
2023-03-21T17:42:20.639Z,53.79
2023-03-21T17:45:24.808Z,54.21
2023-03-21T17:48:29.165Z,54.39
2023-03-21T17:51:33.272Z,52.58
2023-03-21T17:54:37.479Z,53.17
2023-03-21T17:57:42.901Z,53.24
2023-03-21T18:00:47.477Z,53.56
2023-03-21T18:03:51.597Z,54.25
2023-03-21T18:06:59.835Z,53.38
2023-03-21T18:10:05.174Z,53.82
2023-03-21T18:13:08.948Z,54.11
2023-03-21T18:16:16.947Z,54.40
2023-03-21T18:19:21.042Z,54.45
2023-03-21T18:22:24.960Z,54.80
2023-03-21T18:25:29.647Z,55.42
2023-03-21T18:28:33.595Z,56.42
2023-03-21T18:31:37.806Z,57.01
2023-03-21T18:34:43.553Z,57.04
2023-03-21T18:37:49.067Z,56.12
2023-03-21T18:40:56.356Z,57.12
2023-03-21T18:44:09.197Z,56.99
2023-03-21T18:47:20.965Z,57.31
2023-03-21T18:50:25.404Z,57.38
2023-03-21T18:53:32.672Z,57.37
2023-03-21T18:57:26.774Z,57.78
2023-03-21T19:00:10.121Z,57.98
2023-03-21T19:03:24.764Z,58.58
2023-03-21T19:06:37.525Z,58.41
2023-03-21T19:10:05.178Z,58.63
2023-03-21T19:13:09.332Z,59.44
2023-03-21T19:16:15.019Z,58.99
2023-03-21T19:19:24.704Z,60.33
2023-03-21T19:22:30.184Z,59.92
2023-03-21T19:25:36.523Z,60.46
2023-03-21T19:28:41.728Z,61.26
2023-03-21T19:31:47.051Z,61.61
2023-03-21T19:34:52.664Z,61.62
2023-03-21T19:38:00.691Z,62.21
2023-03-21T19:41:05.899Z,62.68
2023-03-21T19:44:10.982Z,62.73
2023-03-21T19:47:17.743Z,63.28
2023-03-21T19:50:57.754Z,63.11
2023-03-21T19:53:53.374Z,63.16
2023-03-21T19:56:58.340Z,63.28
2023-03-21T20:00:03.233Z,62.85
2023-03-21T20:03:11.835Z,63.04
2023-03-21T20:06:17.548Z,62.66
2023-03-21T20:09:51.253Z,63.23
2023-03-21T20:12:48.304Z,62.81
2023-03-21T20:16:03.509Z,63.61
2023-03-21T20:19:12.256Z,63.40
2023-03-21T20:22:27.582Z,63.44
2023-03-21T20:25:46.288Z,63.74
2023-03-21T20:29:21.707Z,64.29
2023-03-21T20:32:24.259Z,64.54
2023-03-21T20:36:16.440Z,64.38
2023-03-21T20:38:53.931Z,64.67
2023-03-21T20:41:59.575Z,64.50
2023-03-21T20:45:06.593Z,64.49
2023-03-21T20:48:11.587Z,64.83
2023-03-21T20:54:42.324Z,66.80
2023-03-21T20:57:48.561Z,67.50
2023-03-21T21:00:52.273Z,67.58
2023-03-21T21:03:57.635Z,67.64
2023-03-21T21:07:01.758Z,67.88
2023-03-21T21:10:05.962Z,67.77
2023-03-21T21:13:09.604Z,67.65
2023-03-21T21:16:15.719Z,68.33
2023-03-21T21:19:21.821Z,68.22
2023-03-21T21:22:25.532Z,68.23
2023-03-21T21:25:30.750Z,68.71
2023-03-21T21:28:34.903Z,68.71
2023-03-21T21:31:39.097Z,69.25
2023-03-21T21:34:43.800Z,69.29
2023-03-21T21:37:47.450Z,69.70
2023-03-21T21:40:52.207Z,70.11
2023-03-21T21:43:56.559Z,70.21
2023-03-21T21:46:59.913Z,70.47
2023-03-21T21:50:03.152Z,70.21
2023-03-21T21:53:06.351Z,70.09
2023-03-21T21:56:10.106Z,70.27
2023-03-21T21:59:16.188Z,70.45
2023-03-21T22:02:19.367Z,70.21
2023-03-21T22:05:22.694Z,70.07
2023-03-21T22:08:25.629Z,70.48
2023-03-21T22:11:28.866Z,70.93
2023-03-21T22:14:31.804Z,71.39
2023-03-21T22:17:36.375Z,71.83
2023-03-21T22:20:39.398Z,71.83
2023-03-21T22:23:43.551Z,72.16
2023-03-21T22:26:46.895Z,72.68
2023-03-21T22:29:50.589Z,72.58
2023-03-21T22:33:08.149Z,72.68
2023-03-21T22:36:12.531Z,72.63
2023-03-21T22:39:15.614Z,72.53
2023-03-21T22:42:18.792Z,72.69
2023-03-21T22:45:22.812Z,72.94
2023-03-21T22:48:30.096Z,73.37
2023-03-21T22:51:34.222Z,74.02
2023-03-21T22:54:39.079Z,74.45
2023-03-21T22:57:43.159Z,74.79
2023-03-21T23:00:47.424Z,74.85
2023-03-21T23:03:51.749Z,74.83
2023-03-21T23:06:54.969Z,74.93
2023-03-21T23:09:57.982Z,75.57
2023-03-21T23:13:01.185Z,75.98
2023-03-21T23:16:07.550Z,76.23
2023-03-21T23:19:11.203Z,76.47
2023-03-21T23:22:14.172Z,76.46
2023-03-21T23:25:20.630Z,76.06
2023-03-21T23:28:23.587Z,75.76
2023-03-21T23:31:27.784Z,75.71
2023-03-21T23:34:49.503Z,75.83
2023-03-21T23:37:53.652Z,75.85
2023-03-21T23:40:57.022Z,76.03
2023-03-21T23:44:00.677Z,76.10
2023-03-21T23:47:03.613Z,76.65
2023-03-21T23:50:09.689Z,77.04
2023-03-21T23:53:12.586Z,77.48
2023-03-21T23:56:21.611Z,77.13
2023-03-21T23:59:24.531Z,77.42
